Time;durP1;ratioP1;P1;durP2;ratioP2;P2;SDS_P1;SDS_P2;PMS_P1;PMS_P2;Temp;Humidity;BMP_temperature;BMP_pressure;BME280_temperature;BME280_humidity;BME280_pressure;Samples;Min_cycle;Max_cycle;Signal;HPM_P1;HPM_P2
2022/05/24 00:00:49;;;;;;;5.18;4.55;;;16.40;99.90;;;17.22;100.00;96799.25;5146494;28;20201;-61
2022/05/24 00:03:24;;;;;;;5.72;5.07;;;16.40;99.90;;;17.18;100.00;96793.19;5129269;28;20238;-63
2022/05/24 00:05:57;;;;;;;5.00;4.50;;;16.40;99.90;;;17.24;100.00;96805.31;5145361;28;20585;-57
2022/05/24 00:08:30;;;;;;;7.45;4.65;;;16.40;99.90;;;17.26;100.00;96798.47;5136620;28;20302;-61
2022/05/24 00:11:03;;;;;;;4.72;4.28;;;16.40;99.90;;;17.22;100.00;96804.41;5130399;28;20676;-56
2022/05/24 00:13:36;;;;;;;4.93;4.43;;;16.40;99.90;;;17.15;100.00;96813.81;5139159;28;20231;-60
2022/05/24 00:16:10;;;;;;;4.78;4.25;;;16.40;99.90;;;17.08;100.00;96820.59;5117855;28;20228;-53
2022/05/24 00:18:45;;;;;;;4.80;4.43;;;16.30;99.90;;;17.15;100.00;96818.09;5117197;28;20285;-60
2022/05/24 00:21:18;;;;;;;6.70;5.00;;;16.40;99.90;;;17.16;100.00;96812.09;5119211;28;20258;-59
2022/05/24 00:23:51;;;;;;;5.38;4.60;;;16.40;99.90;;;17.20;100.00;96808.72;5122641;28;20426;-54
2022/05/24 00:26:31;;;;;;;6.07;5.03;;;16.40;99.90;;;17.26;100.00;96817.41;5133251;28;20251;-53
2022/05/24 00:29:04;;;;;;;8.27;5.65;;;16.50;99.90;;;17.29;100.00;96819.16;5115620;28;20745;-60
2022/05/24 00:31:38;;;;;;;6.32;5.05;;;16.50;99.90;;;17.33;100.00;96814.03;5140113;28;20278;-57
2022/05/24 00:34:12;;;;;;;5.70;5.20;;;16.60;99.90;;;17.30;100.00;96818.31;5117685;28;20224;-60
2022/05/24 00:36:45;;;;;;;5.80;5.07;;;16.50;99.90;;;17.27;100.00;96834.63;5135710;28;20248;-58
2022/05/24 00:39:19;;;;;;;4.90;4.50;;;16.50;99.90;;;17.29;100.00;96863.06;5119462;28;20232;-59
2022/05/24 00:42:04;;;;;;;7.53;4.38;;;16.50;99.90;;;17.22;100.00;96858.66;5135573;28;20247;-60
2022/05/24 00:44:41;;;;;;;3.92;3.63;;;16.50;99.90;;;17.23;100.00;96863.00;5137668;28;20244;-59
2022/05/24 00:47:23;;;;;;;3.65;3.35;;;16.50;99.90;;;17.30;96.77;96864.81;5115558;28;20238;-59
2022/05/24 00:50:03;;;;;;;3.15;2.90;;;16.60;99.90;;;17.21;97.40;96870.69;5143065;28;20238;-60
2022/05/24 00:52:46;;;;;;;3.10;2.90;;;16.50;99.90;;;17.18;96.79;96868.06;5117377;28;20209;-62
2022/05/24 00:55:22;;;;;;;3.03;2.65;;;16.50;99.90;;;17.13;96.02;96861.09;5132959;28;20321;-61
2022/05/24 00:58:05;;;;;;;2.78;2.50;;;16.40;99.90;;;17.10;94.67;96865.38;5144566;28;20232;-62
2022/05/24 01:00:38;;;;;;;4.35;2.80;;;16.40;99.90;;;17.00;95.00;96858.34;5135410;28;20192;-62
2022/05/24 01:03:12;;;;;;;4.07;2.45;;;16.40;99.90;;;16.94;94.44;96863.41;5133452;28;20201;-63
2022/05/24 01:05:47;;;;;;;2.53;2.30;;;16.30;99.90;;;16.97;93.93;96860.88;5128354;28;20255;-62
2022/05/24 01:08:20;;;;;;;3.55;2.78;;;16.30;99.90;;;16.89;94.66;96860.75;5139000;28;20277;-62
2022/05/24 01:10:54;;;;;;;2.58;2.45;;;16.30;99.90;;;16.79;95.88;96868.31;5123482;28;20320;-62
2022/05/24 01:13:29;;;;;;;2.92;2.72;;;16.20;99.90;;;16.84;96.40;96866.69;5142216;28;20232;-62
2022/05/24 01:16:02;;;;;;;2.60;2.50;;;16.20;99.90;;;16.91;96.36;96871.09;5119453;28;20266;-57
2022/05/24 01:18:36;;;;;;;2.78;2.67;;;16.30;99.90;;;16.90;96.79;96869.34;5143412;28;20220;-60
2022/05/24 01:21:14;;;;;;;2.53;2.42;;;16.30;99.90;;;16.86;96.80;96870.16;5133839;28;20686;-60
2022/05/24 01:23:58;;;;;;;2.90;2.70;;;16.30;99.90;;;16.79;96.21;96870.88;5128834;28;20200;-60
2022/05/24 01:26:45;;;;;;;2.85;2.65;;;16.20;99.90;;;16.82;96.65;96870.94;5154506;28;20671;-60
2022/05/24 01:29:21;;;;;;;2.90;2.70;;;16.20;99.90;;;16.83;97.06;96867.53;5154048;28;20200;-60
2022/05/24 01:37:37;;;;;;;2.90;2.40;;;16.30;99.90;;;16.88;98.14;96876.19;5132116;28;20693;-60
2022/05/24 01:40:10;;;;;;;2.95;2.65;;;16.30;99.90;;;16.84;97.98;96877.00;5114945;28;20641;-61
2022/05/24 01:42:45;;;;;;;2.92;2.42;;;16.20;99.90;;;16.75;98.48;96871.66;5130034;28;20196;-58
2022/05/24 01:45:24;;;;;;;2.33;2.22;;;16.20;99.90;;;16.70;98.28;96873.28;5150495;28;20702;-60
2022/05/24 01:48:02;;;;;;;2.60;2.40;;;16.10;99.90;;;16.66;98.69;96865.50;5119620;28;20318;-58
2022/05/24 01:50:37;;;;;;;3.30;3.10;;;16.10;99.90;;;16.67;99.70;96851.75;5159902;28;20270;-59
2022/05/24 01:53:15;;;;;;;2.78;2.58;;;16.10;99.90;;;16.65;100.00;96853.44;5146122;28;20236;-57
2022/05/24 01:55:52;;;;;;;2.67;2.58;;;16.10;99.90;;;16.61;100.00;96864.53;5113213;28;20294;-60
2022/05/24 01:58:32;;;;;;;2.85;2.70;;;16.10;99.90;;;16.58;100.00;96854.16;5128325;28;20287;-62
2022/05/24 02:01:20;;;;;;;2.72;2.53;;;16.00;99.90;;;16.57;100.00;96865.34;5116721;28;20235;-59
2022/05/24 02:03:53;;;;;;;3.15;2.90;;;16.00;99.90;;;16.54;100.00;96854.97;5120986;28;20331;-63
2022/05/24 02:06:28;;;;;;;2.72;2.47;;;16.00;99.90;;;16.54;100.00;96847.25;5128510;28;20304;-62
2022/05/24 02:09:02;;;;;;;3.95;2.80;;;16.00;99.90;;;16.59;100.00;96858.47;5120571;28;20239;-63
2022/05/24 02:11:36;;;;;;;2.90;2.70;;;16.00;99.90;;;16.58;100.00;96856.75;5120823;28;20258;-62
2022/05/24 02:14:21;;;;;;;2.85;2.65;;;16.10;99.90;;;16.62;100.00;96863.69;5119985;28;20259;-59
2022/05/24 02:17:03;;;;;;;3.15;2.97;;;16.10;99.90;;;16.61;100.00;96856.81;5118667;28;20302;-63
2022/05/24 02:19:42;;;;;;;3.15;2.95;;;16.10;99.90;;;16.62;100.00;96852.50;5116300;28;20229;-63
2022/05/24 02:22:20;;;;;;;3.25;3.05;;;16.00;99.90;;;16.63;100.00;96844.81;5118694;28;20212;-59
2022/05/24 02:24:57;;;;;;;3.58;3.33;;;16.00;99.90;;;16.66;100.00;96831.94;5119615;28;20219;-62
2022/05/24 02:27:31;;;;;;;3.35;3.15;;;16.00;99.90;;;16.61;100.00;96832.72;5119478;28;20319;-63
2022/05/24 02:30:07;;;;;;;3.35;3.05;;;16.00;99.90;;;16.62;100.00;96837.88;5126672;28;20604;-62
2022/05/24 02:32:41;;;;;;;2.95;2.67;;;16.00;99.90;;;16.60;100.00;96833.56;5120950;28;20205;-63
2022/05/24 02:35:16;;;;;;;3.38;3.13;;;15.90;99.90;;;16.51;100.00;96830.81;5121429;28;20220;-61
2022/05/24 02:37:49;;;;;;;3.70;3.40;;;15.90;99.90;;;16.49;100.00;96830.81;5125794;28;20260;-63
2022/05/24 02:43:13;;;;;;;3.60;3.30;;;15.90;99.90;;;16.49;100.00;96829.94;5120524;28;20236;-62
2022/05/24 02:45:47;;;;;;;3.13;2.92;;;15.90;99.90;;;16.54;100.00;96839.50;5122791;28;20319;-64
2022/05/24 02:48:21;;;;;;;3.67;3.40;;;15.90;99.90;;;16.49;100.00;96845.41;5124432;28;20733;-63
2022/05/24 02:50:54;;;;;;;3.92;3.58;;;15.90;99.90;;;16.48;100.00;96844.53;5123979;28;20254;-63
2022/05/24 02:53:27;;;;;;;4.15;3.90;;;15.90;99.90;;;16.55;100.00;96836.06;5122196;28;20741;-63
2022/05/24 02:56:03;;;;;;;3.65;3.35;;;15.90;99.90;;;16.48;100.00;96836.78;5119441;28;20782;-62
2022/05/24 02:58:36;;;;;;;4.28;3.97;;;15.90;99.90;;;16.40;100.00;96826.34;5122767;28;20279;-62
2022/05/24 03:01:19;;;;;;;3.67;3.40;;;15.80;99.90;;;16.38;100.00;96833.19;5122488;28;20255;-63
2022/05/24 03:03:54;;;;;;;3.20;3.00;;;15.80;99.90;;;16.36;100.00;96839.16;5120810;28;20269;-62
2022/05/24 03:06:28;;;;;;;3.53;3.22;;;15.70;99.90;;;16.40;100.00;96840.97;5117272;28;20696;-63
2022/05/24 03:14:42;;;;;;;3.80;3.50;;;15.70;99.90;;;16.38;100.00;96842.63;5120503;28;20728;-63
2022/05/24 03:17:17;;;;;;;4.00;3.70;;;15.80;99.90;;;16.44;100.00;96853.06;5119200;28;20323;-62
2022/05/24 03:19:51;;;;;;;3.63;3.42;;;15.80;99.90;;;16.42;100.00;96834.09;5121357;28;20706;-63
2022/05/24 03:22:25;;;;;;;4.05;3.63;;;15.80;99.90;;;16.40;100.00;96840.97;5121965;28;20720;-62
2022/05/24 03:24:58;;;;;;;4.35;3.97;;;15.80;99.90;;;16.37;100.00;96840.91;5117416;28;20232;-62
2022/05/24 03:27:31;;;;;;;3.70;3.40;;;15.80;99.90;;;16.36;100.00;96829.69;5125447;28;20262;-63
2022/05/24 03:30:05;;;;;;;4.10;3.72;;;15.80;99.90;;;16.31;100.00;96827.88;5120619;28;20745;-62
2022/05/24 03:32:39;;;;;;;4.05;3.75;;;15.70;99.90;;;16.31;100.00;96833.94;5118847;28;21626;-61
2022/05/24 03:35:13;;;;;;;3.80;3.50;;;15.70;99.90;;;16.32;100.00;96835.66;5116932;28;20757;-62
2022/05/24 03:37:46;;;;;;;3.88;3.58;;;15.70;99.90;;;16.27;100.00;96833.84;5120518;28;20286;-63
2022/05/24 03:40:19;;;;;;;3.80;3.60;;;15.60;99.90;;;16.27;100.00;96833.84;5129623;28;20209;-62
2022/05/24 03:42:54;;;;;;;3.80;3.50;;;15.60;99.90;;;16.20;100.00;96832.88;5120128;28;20205;-63
2022/05/24 03:45:28;;;;;;;3.45;3.15;;;15.50;99.90;;;16.18;100.00;96835.41;5121834;28;20215;-62
2022/05/24 03:48:02;;;;;;;3.63;3.42;;;15.50;99.90;;;16.17;100.00;96836.25;5116003;28;20229;-62
2022/05/24 03:50:35;;;;;;;3.80;3.58;;;15.50;99.90;;;16.24;100.00;96844.09;5117701;28;20625;-62
2022/05/24 03:53:08;;;;;;;4.05;3.75;;;15.50;99.90;;;16.26;100.00;96842.44;5122667;28;20204;-63
2022/05/24 03:55:41;;;;;;;3.85;3.55;;;15.60;99.90;;;16.30;100.00;96844.22;5122466;28;20660;-62
2022/05/24 03:58:15;;;;;;;3.83;3.63;;;15.70;99.90;;;16.33;100.00;96839.97;5121042;28;20208;-63
2022/05/24 04:00:48;;;;;;;4.50;4.10;;;15.70;99.90;;;16.37;100.00;96851.22;5115835;28;20232;-62
2022/05/24 04:03:23;;;;;;;4.07;3.75;;;15.70;99.90;;;16.42;100.00;96852.16;5125595;28;20200;-63
2022/05/24 04:05:56;;;;;;;3.80;3.60;;;15.70;99.90;;;16.43;100.00;96848.75;5120872;28;20287;-59
2022/05/24 04:08:29;;;;;;;3.40;3.20;;;15.70;99.90;;;16.45;100.00;96859.94;5120553;28;20236;-60
2022/05/24 04:11:06;;;;;;;3.53;3.22;;;15.70;99.90;;;16.47;100.00;96860.84;5122175;28;20201;-61
2022/05/24 04:13:42;;;;;;;4.32;3.92;;;15.80;99.90;;;16.48;100.00;96874.63;5120935;28;20204;-63
2022/05/24 04:16:15;;;;;;;4.10;3.80;;;15.80;99.90;;;16.47;100.00;96868.59;5121579;28;20228;-62
2022/05/24 04:18:50;;;;;;;3.97;3.75;;;15.80;99.90;;;16.51;100.00;96874.66;5119835;28;20219;-62
2022/05/24 04:21:23;;;;;;;3.50;3.30;;;15.80;99.90;;;16.50;100.00;96866.06;5120292;28;20664;-62
2022/05/24 04:23:57;;;;;;;3.65;3.35;;;15.80;99.90;;;16.53;100.00;96878.16;5120322;28;20576;-63
2022/05/24 04:26:30;;;;;;;3.22;3.03;;;15.80;99.90;;;16.45;100.00;96878.00;5120260;28;20225;-62
2022/05/24 04:29:04;;;;;;;3.30;3.10;;;15.70;99.90;;;16.46;100.00;96876.31;5113982;28;20233;-63
2022/05/24 04:31:37;;;;;;;3.50;3.30;;;15.70;99.90;;;16.48;100.00;96867.75;5163619;28;20232;-63
2022/05/24 04:34:11;;;;;;;3.38;3.08;;;15.80;99.90;;;16.49;100.00;96861.75;5118871;28;20296;-63
2022/05/24 04:36:44;;;;;;;3.53;3.22;;;15.80;99.90;;;16.49;100.00;96861.75;5139924;28;20220;-62
2022/05/24 04:39:17;;;;;;;3.25;3.05;;;15.80;99.90;;;16.49;100.00;96855.72;5119439;28;20232;-62
2022/05/24 04:44:47;;;;;;;4.28;3.38;;;15.80;99.90;;;16.47;100.00;96868.59;5153727;28;20237;-63
2022/05/24 04:47:23;;;;;;;3.45;3.25;;;15.70;99.90;;;16.51;100.00;96875.56;5119136;28;20342;-63
2022/05/24 04:50:01;;;;;;;3.38;3.17;;;15.80;99.90;;;16.52;100.00;96892.75;5121183;28;20246;-63
2022/05/24 04:52:37;;;;;;;3.90;3.33;;;15.80;99.90;;;16.55;100.00;96902.28;5144431;28;20295;-63
2022/05/24 04:55:14;;;;;;;3.42;3.20;;;15.80;99.90;;;16.49;100.00;96904.75;5206831;28;21195;-62
2022/05/24 04:57:47;;;;;;;3.60;3.30;;;15.90;99.90;;;16.48;100.00;96901.28;5119593;28;20680;-63
2022/05/24 05:00:21;;;;;;;3.67;3.38;;;15.90;99.90;;;16.55;100.00;96897.97;5128968;28;20231;-60
2022/05/24 05:02:54;;;;;;;3.53;3.33;;;15.90;99.90;;;16.60;100.00;96906.69;5161284;28;20205;-61
2022/05/24 05:05:32;;;;;;;3.60;3.30;;;15.90;99.90;;;16.59;100.00;96910.06;5166807;28;20258;-63
2022/05/24 05:08:06;;;;;;;3.92;3.35;;;15.90;99.90;;;16.57;100.00;96891.16;5131185;28;20685;-63
2022/05/24 05:10:40;;;;;;;3.85;3.65;;;15.90;99.90;;;16.62;99.87;96889.50;5134224;28;20572;-63
2022/05/24 05:13:13;;;;;;;3.70;3.50;;;15.90;99.90;;;16.61;100.00;96898.09;5158949;28;20212;-59
2022/05/24 05:15:46;;;;;;;3.83;3.58;;;15.90;99.90;;;16.61;100.00;96900.66;5115635;28;20208;-63
2022/05/24 05:18:20;;;;;;;4.45;4.13;;;15.90;99.90;;;16.66;100.00;96896.47;5114864;28;20248;-62
2022/05/24 05:20:55;;;;;;;3.97;3.67;;;16.00;99.90;;;16.64;100.00;96897.28;5115566;28;20204;-61
2022/05/24 05:23:28;;;;;;;4.00;3.80;;;16.00;99.90;;;16.69;100.00;96905.97;5119886;28;20261;-62
2022/05/24 05:26:01;;;;;;;3.72;3.42;;;16.00;99.90;;;16.72;100.00;96912.91;5150204;28;20259;-61
2022/05/24 05:28:34;;;;;;;4.20;3.90;;;16.10;99.90;;;16.72;100.00;96910.31;5127910;28;20524;-61
2022/05/24 05:31:23;;;;;;;4.25;3.95;;;16.10;99.90;;;16.59;100.00;96899.75;5133901;28;20213;-62
2022/05/24 05:33:58;;;;;;;4.45;4.05;;;16.00;99.90;;;16.63;100.00;96906.72;5130034;28;20201;-61
2022/05/24 05:36:35;;;;;;;4.47;4.07;;;16.00;99.90;;;16.64;100.00;96913.63;5141318;28;20278;-62
2022/05/24 05:39:08;;;;;;;4.30;4.00;;;15.90;99.90;;;16.62;100.00;96923.03;5151206;28;20726;-63
2022/05/24 05:41:41;;;;;;;4.10;3.80;;;16.00;99.90;;;16.62;100.00;96920.44;5140411;28;20642;-60
2022/05/24 05:44:14;;;;;;;3.60;3.30;;;16.00;99.90;;;16.64;100.00;96920.50;5177273;28;20201;-62
2022/05/24 05:46:49;;;;;;;3.55;3.35;;;16.00;99.90;;;16.65;100.00;96915.38;5161273;28;20281;-62
2022/05/24 05:49:22;;;;;;;4.25;3.85;;;16.00;99.90;;;16.63;99.43;96906.72;5123333;28;20219;-62
2022/05/24 05:51:56;;;;;;;4.68;4.28;;;16.00;99.90;;;16.73;100.00;96917.22;5117071;28;20255;-63
2022/05/24 05:54:29;;;;;;;4.15;3.85;;;16.00;99.90;;;16.78;100.00;96921.63;5166055;28;20243;-62
2022/05/24 05:57:02;;;;;;;4.38;4.10;;;16.10;99.90;;;16.81;100.00;96920.84;5118874;28;20644;-62
2022/05/24 05:59:36;;;;;;;3.63;3.33;;;16.20;99.90;;;16.92;100.00;96923.59;5202597;28;20212;-62
2022/05/24 06:02:09;;;;;;;4.10;3.80;;;16.20;99.90;;;16.98;99.89;96921.97;5121614;28;20201;-62
2022/05/24 06:04:43;;;;;;;3.30;3.10;;;16.20;99.90;;;16.98;99.90;96919.41;5122822;28;20667;-62
2022/05/24 06:07:18;;;;;;;3.63;3.33;;;16.30;99.90;;;16.99;99.90;96925.44;5123038;28;20224;-60
2022/05/24 06:09:51;;;;;;;4.10;3.80;;;16.30;99.90;;;16.95;99.18;96934.84;5119926;28;20217;-62
2022/05/24 06:12:24;;;;;;;3.28;3.17;;;16.20;99.90;;;17.00;99.81;96943.53;5120947;28;20247;-60
2022/05/24 06:14:57;;;;;;;3.50;3.30;;;16.30;99.90;;;17.07;99.77;96945.38;5194296;28;20657;-61
2022/05/24 06:17:31;;;;;;;3.70;3.50;;;16.40;99.90;;;17.17;99.82;96940.34;5185441;28;20224;-61
2022/05/24 06:20:05;;;;;;;3.47;3.28;;;16.50;99.90;;;17.30;99.03;96944.88;5121382;28;20286;-59
2022/05/24 06:22:39;;;;;;;3.50;3.20;;;16.60;99.90;;;17.35;97.44;96935.50;5159509;28;20262;-62
2022/05/24 06:25:17;;;;;;;3.10;2.90;;;16.60;99.90;;;17.34;94.90;96938.94;5118105;28;20212;-62
2022/05/24 06:27:51;;;;;;;3.63;3.00;;;16.60;99.90;;;17.31;95.33;96946.59;5121281;28;20216;-62
2022/05/24 06:30:26;;;;;;;3.00;2.80;;;16.60;99.90;;;17.51;94.59;96947.81;5121255;28;20723;-62
2022/05/24 06:32:59;;;;;;;2.50;2.35;;;16.80;99.90;;;17.73;94.55;96950.69;5115708;28;20207;-62
2022/05/24 06:35:33;;;;;;;3.08;2.80;;;17.00;99.90;;;17.86;92.41;96957.81;5114727;28;20208;-62
2022/05/24 06:38:08;;;;;;;3.03;2.72;;;17.10;99.90;;;17.98;90.83;96957.97;5121517;28;20295;-62
2022/05/24 06:40:41;;;;;;;2.97;2.78;;;17.20;99.90;;;18.10;91.80;96959.84;5179284;28;20250;-62
2022/05/24 06:43:15;;;;;;;2.78;2.65;;;17.40;99.90;;;18.31;91.60;96959.22;5120184;29;20244;-62
2022/05/24 06:45:48;;;;;;;2.90;2.72;;;17.60;99.90;;;18.53;90.66;96964.69;5142633;28;20209;-62
2022/05/24 06:48:21;;;;;;;2.83;2.72;;;17.80;99.90;;;18.78;89.97;96971.03;5139862;28;20243;-62
2022/05/24 06:50:54;;;;;;;3.17;2.88;;;18.00;99.90;;;19.00;86.92;96975.56;5122035;28;20608;-65
2022/05/24 06:53:29;;;;;;;3.15;2.95;;;18.20;99.90;;;18.94;86.77;96966.84;5145796;28;20244;-62
2022/05/24 06:56:02;;;;;;;2.83;2.63;;;18.10;99.90;;;18.95;87.12;96968.63;5118837;29;20259;-62
2022/05/24 06:58:36;;;;;;;2.97;2.78;;;18.10;99.90;;;18.96;85.72;96970.34;5146539;28;20224;-62
2022/05/24 07:04:06;;;;;;;2.70;2.50;;;18.10;99.90;;;19.06;85.13;96961.81;5124061;28;20193;-62
2022/05/24 07:06:39;;;;;;;2.55;2.45;;;18.20;99.90;;;19.20;84.55;96960.22;5121393;28;20235;-62
2022/05/24 07:09:13;;;;;;;3.03;2.80;;;18.30;99.90;;;19.24;83.45;96961.97;5122190;28;20415;-62
2022/05/24 07:11:47;;;;;;;2.80;2.60;;;18.30;99.90;;;19.39;83.06;96961.22;5176639;28;20201;-62
2022/05/24 07:14:20;;;;;;;2.83;2.60;;;18.50;99.90;;;19.49;81.23;96962.16;5114015;28;20209;-62
2022/05/24 07:16:53;;;;;;;2.80;2.55;;;18.60;99.90;;;19.87;80.38;96967.63;5143232;28;20252;-63
2022/05/24 07:19:27;;;;;;;2.47;2.35;;;18.90;99.90;;;20.06;79.22;96973.81;5132826;28;20225;-62
2022/05/24 07:22:00;;;;;;;3.55;2.67;;;19.10;99.90;;;20.09;78.01;96981.59;5120194;28;20247;-60
2022/05/24 07:24:35;;;;;;;2.55;2.20;;;19.00;99.90;;;20.12;77.14;96971.25;5120880;28;20731;-60
2022/05/24 07:27:11;;;;;;;2.40;2.20;;;19.10;99.90;;;20.23;74.29;96974.75;5120971;29;20216;-59
2022/05/24 07:29:45;;;;;;;3.15;2.20;;;19.20;99.90;;;20.32;73.78;96978.25;5120870;28;20201;-59
2022/05/24 07:32:18;;;;;;;2.38;2.17;;;19.30;99.90;;;20.36;73.65;96980.84;5119197;28;20213;-60
2022/05/24 07:34:51;;;;;;;2.60;2.40;;;19.40;99.90;;;20.44;72.16;96978.31;5131605;28;20235;-62
2022/05/24 07:37:24;;;;;;;2.25;1.90;;;19.50;99.90;;;20.54;70.08;96984.41;5117296;28;20252;-61
2022/05/24 07:45:51;;;;;;;5.90;1.60;;;19.40;99.90;;;18.96;62.89;97099.84;5137540;28;20190;-62
2022/05/24 07:48:24;;;;;;;1.70;1.20;;;18.30;99.90;;;18.47;63.27;97120.75;5129828;28;20200;-62
2022/05/24 07:50:57;;;;;;;1.05;0.93;;;17.30;99.90;;;17.98;65.51;97131.22;5146783;28;20615;-62
2022/05/24 07:53:31;;;;;;;2.05;1.02;;;16.80;99.90;;;17.53;72.68;97136.44;5130962;28;20236;-61
2022/05/24 07:56:07;;;;;;;1.38;1.27;;;16.40;99.90;;;16.74;75.39;97134.03;5120665;28;20700;-62
2022/05/24 07:58:40;;;;;;;3.17;1.63;;;15.90;99.90;;;16.20;77.78;97135.41;5139267;28;20700;-61
2022/05/24 08:01:15;;;;;;;1.48;1.38;;;15.50;99.90;;;16.02;81.08;97141.84;5139370;28;20300;-60
2022/05/24 08:03:48;;;;;;;2.83;1.83;;;15.30;99.90;;;15.70;82.06;97155.66;5119902;28;20291;-61
2022/05/24 08:06:21;;;;;;;1.42;1.15;;;15.00;99.90;;;15.47;84.76;97155.03;5161943;28;20229;-59
2022/05/24 08:08:54;;;;;;;1.40;1.20;;;14.80;99.90;;;15.42;86.76;97176.34;5114074;28;20237;-61
2022/05/24 08:11:29;;;;;;;2.45;1.38;;;14.80;99.90;;;15.36;87.22;97173.59;5202211;28;20282;-61
2022/05/24 08:14:02;;;;;;;3.25;1.55;;;14.70;99.90;;;15.29;89.29;97183.75;5128060;28;20249;-61
2022/05/24 08:16:36;;;;;;;1.88;1.77;;;14.70;99.90;;;15.31;92.38;97178.66;5122017;28;20271;-61
2022/05/24 08:19:09;;;;;;;2.85;1.67;;;14.70;99.90;;;15.24;91.53;97180.16;5119104;29;20248;-62
2022/05/24 08:21:42;;;;;;;1.75;1.65;;;14.70;99.90;;;15.19;91.43;97192.03;5129527;28;20197;-62
2022/05/24 08:24:16;;;;;;;2.03;1.80;;;14.60;99.90;;;15.29;92.29;97200.91;5115705;28;20236;-62
2022/05/24 08:26:50;;;;;;;1.83;1.60;;;14.70;99.90;;;15.19;92.33;97204.91;5114650;28;20262;-62
2022/05/24 08:29:23;;;;;;;4.05;1.85;;;14.70;99.90;;;15.19;91.60;97212.63;5119380;28;20278;-61
2022/05/24 08:31:57;;;;;;;1.73;1.63;;;14.60;99.90;;;15.12;91.48;97215.88;5118276;28;20290;-61
2022/05/24 08:34:31;;;;;;;2.25;1.98;;;14.50;99.90;;;15.01;92.21;97212.09;5119047;28;20192;-61
2022/05/24 08:37:04;;;;;;;2.65;1.38;;;14.50;99.90;;;14.99;92.56;97217.19;5115987;28;20761;-61
2022/05/24 08:39:37;;;;;;;1.67;1.58;;;14.40;99.90;;;15.10;92.33;97212.38;5124088;28;20311;-61
2022/05/24 08:42:22;;;;;;;2.25;1.60;;;14.50;99.90;;;15.02;92.84;97211.28;5159823;28;20652;-61
2022/05/24 08:50:56;;;;;;;2.38;1.73;;;14.60;99.90;;;15.48;94.30;97212.56;5118834;28;20231;-60
2022/05/24 08:53:36;;;;;;;3.05;1.60;;;14.90;99.90;;;16.01;94.37;97208.00;5116968;28;20244;-60
2022/05/24 08:56:15;;;;;;;1.70;1.60;;;15.60;99.90;;;16.52;91.21;97197.19;5120543;28;20228;-61
2022/05/24 08:58:54;;;;;;;2.50;1.25;;;16.00;99.90;;;16.86;89.29;97205.72;5137312;28;20303;-62
2022/05/24 09:01:32;;;;;;;1.50;1.40;;;16.40;99.90;;;17.11;85.51;97205.41;5118624;28;20205;-62
2022/05/24 09:04:09;;;;;;;1.60;1.50;;;16.60;99.90;;;17.23;84.93;97209.09;5116550;28;20207;-61
2022/05/24 09:06:59;;;;;;;1.60;1.50;;;16.70;99.90;;;17.28;84.28;97207.44;5127067;28;20228;-62
2022/05/24 09:09:56;;;;;;;1.75;1.65;;;16.60;99.90;;;17.55;83.23;97213.16;5113303;28;20808;-62
2022/05/24 09:13:02;;;;;;;2.88;1.60;;;16.80;99.90;;;17.66;83.38;97204.75;5130745;28;20231;-61
2022/05/24 09:15:46;;;;;;;3.15;1.60;;;17.00;99.90;;;17.98;80.14;97210.53;5117875;28;20197;-62
2022/05/24 09:18:31;;;;;;;1.52;1.42;;;17.50;99.90;;;18.42;78.38;97198.31;5119355;28;20247;-62
2022/05/24 09:21:05;;;;;;;1.70;1.60;;;18.00;99.90;;;18.87;79.68;97219.72;5122774;28;20224;-62
2022/05/24 09:23:44;;;;;;;1.80;1.70;;;18.50;99.90;;;18.95;77.07;97206.88;5121529;28;20201;-61
2022/05/24 09:26:22;;;;;;;1.92;1.50;;;18.50;99.90;;;19.13;75.25;97205.38;5117888;28;20229;-62
2022/05/24 09:28:58;;;;;;;2.50;1.60;;;18.50;99.90;;;19.03;72.77;97200.97;5118981;28;20665;-62
2022/05/24 09:31:41;;;;;;;1.70;1.40;;;18.40;99.90;;;19.16;70.50;97209.75;5127725;28;20631;-62
2022/05/24 09:34:34;;;;;;;1.50;1.40;;;18.40;99.90;;;19.03;74.13;97211.31;5122599;28;20542;-62
2022/05/24 09:37:18;;;;;;;1.45;1.35;;;18.30;99.90;;;19.03;71.83;97210.41;5127499;28;20744;-62
2022/05/24 09:39:59;;;;;;;1.40;1.30;;;18.20;99.90;;;19.02;71.32;97222.50;5113755;28;20298;-62
2022/05/24 09:42:36;;;;;;;2.55;1.40;;;18.10;99.90;;;18.99;70.57;97208.66;5134607;28;20626;-62
2022/05/24 09:45:15;;;;;;;3.00;1.70;;;18.00;99.90;;;18.79;72.80;97208.38;5144138;28;20239;-62
2022/05/24 09:47:56;;;;;;;1.65;1.55;;;17.90;99.90;;;18.90;70.90;97209.41;5110625;28;20661;-62
2022/05/24 09:50:37;;;;;;;1.98;1.20;;;18.00;99.90;;;18.83;71.59;97213.63;5120865;28;20824;-63
2022/05/24 09:53:17;;;;;;;1.35;1.25;;;17.90;99.90;;;19.04;70.67;97222.53;5121723;28;20204;-62
2022/05/24 09:55:55;;;;;;;1.23;1.23;;;18.10;99.90;;;19.28;70.84;97233.22;5126584;28;20208;-62
2022/05/24 09:58:33;;;;;;;1.25;1.13;;;18.40;99.90;;;19.47;72.55;97236.91;5122195;28;20200;-62
2022/05/24 10:01:09;;;;;;;1.30;1.20;;;18.80;99.90;;;19.72;66.10;97235.50;5118800;28;20205;-63
2022/05/24 10:03:46;;;;;;;1.10;1.10;;;18.80;99.90;;;19.99;66.49;97228.84;5174001;28;20640;-60
2022/05/24 10:06:25;;;;;;;1.63;1.23;;;19.10;99.90;;;20.01;65.03;97234.94;5152880;28;20781;-63
2022/05/24 10:09:01;;;;;;;1.10;1.10;;;19.20;99.90;;;20.13;59.85;97253.22;5127580;28;20196;-62
2022/05/24 10:11:50;;;;;;;1.88;1.23;;;19.20;99.90;;;19.97;61.37;97236.63;5155541;28;20226;-62
2022/05/24 10:14:33;;;;;;;1.20;1.10;;;19.00;99.90;;;19.98;62.10;97234.91;5121582;28;20296;-62
2022/05/24 10:17:16;;;;;;;1.20;1.20;;;19.00;99.90;;;20.02;63.52;97234.06;5123228;28;20307;-61
2022/05/24 10:20:05;;;;;;;0.90;0.90;;;19.10;99.90;;;20.37;61.86;97238.72;5120146;28;20251;-61
2022/05/24 10:22:49;;;;;;;2.35;1.20;;;19.50;99.90;;;20.14;62.25;97241.97;5121913;28;20259;-62
2022/05/24 10:25:30;;;;;;;2.15;1.05;;;19.40;99.90;;;20.09;60.25;97250.56;5128712;28;20230;-62
2022/05/24 10:28:17;;;;;;;1.20;1.10;;;19.10;99.90;;;19.90;60.21;97249.53;5138805;28;20220;-62
2022/05/24 10:31:06;;;;;;;1.20;1.10;;;18.90;99.90;;;19.57;61.61;97245.66;5119249;28;20248;-61
2022/05/24 10:40:14;;;;;;;0.95;0.93;;;19.00;99.90;;;19.98;60.08;97242.69;5117078;28;20342;-58
2022/05/24 10:43:04;;;;;;;1.20;1.10;;;19.20;99.90;;;20.12;59.89;97240.25;5165342;28;20196;-58
2022/05/24 10:45:51;;;;;;;1.48;1.27;;;19.50;99.90;;;20.08;57.62;97241.91;5121629;28;20205;-61
2022/05/24 10:48:34;;;;;;;1.00;1.00;;;19.50;99.90;;;20.07;57.91;97228.94;5122078;28;20235;-58
2022/05/24 10:51:16;;;;;;;0.95;0.95;;;19.30;99.90;;;20.32;59.51;97227.44;5120904;28;20205;-54
2022/05/24 10:53:55;;;;;;;2.00;1.10;;;19.60;99.90;;;20.58;56.43;97214.69;5116427;28;20216;-57
2022/05/24 10:56:37;;;;;;;1.10;1.10;;;19.80;99.90;;;20.82;54.88;97216.56;5119097;28;20648;-58
2022/05/24 10:59:21;;;;;;;0.90;0.90;;;20.00;99.70;;;20.89;54.03;97215.75;5120061;28;20201;-55
2022/05/24 11:02:00;;;;;;;1.27;1.17;;;20.10;98.80;;;20.99;52.79;97222.72;5146427;28;20190;-55
2022/05/24 11:04:44;;;;;;;1.10;1.00;;;20.20;98.20;;;21.11;50.52;97217.59;5124812;28;20639;-52
2022/05/24 11:07:20;;;;;;;1.15;1.15;;;20.30;96.70;;;21.00;52.70;97219.25;5136275;28;20221;-52
2022/05/24 11:10:09;;;;;;;0.90;0.90;;;20.30;97.60;;;20.96;53.91;97233.09;5121140;28;20195;-55
2022/05/24 11:12:46;;;;;;;1.45;1.00;;;20.40;98.20;;;21.01;51.87;97221.03;5118036;28;20197;-52
2022/05/24 11:15:28;;;;;;;1.27;1.27;;;20.40;96.70;;;20.94;51.20;97219.22;5116218;28;20232;-59
2022/05/24 11:18:04;;;;;;;1.00;1.00;;;20.40;96.10;;;21.08;49.29;97206.31;5118850;28;20224;-58
2022/05/24 11:20:43;;;;;;;0.90;0.90;;;20.50;95.20;;;21.02;50.63;97207.16;5122384;28;20266;-55
2022/05/24 11:23:21;;;;;;;1.13;1.10;;;20.50;95.30;;;21.24;52.46;97212.47;5117627;28;20201;-57
2022/05/24 11:26:05;;;;;;;1.05;1.00;;;20.70;96.70;;;21.44;50.07;97213.44;5169676;28;20615;-55
2022/05/24 11:28:55;;;;;;;2.22;0.98;;;20.90;94.80;;;21.69;51.08;97205.72;5117438;28;20238;-54
2022/05/24 11:31:38;;;;;;;1.17;1.08;;;21.10;95.80;;;21.57;49.01;97210.00;5163951;28;20248;-56